Time;durP1;ratioP1;P1;durP2;ratioP2;P2;SDS_P1;SDS_P2;PMS_P1;PMS_P2;Temp;Humidity;BMP_temperature;BMP_pressure;BME280_temperature;BME280_humidity;BME280_pressure;Samples;Min_cycle;Max_cycle;Signal;HPM_P1;HPM_P2
2023/10/05 00:01:18;;;;;;;;;;;;;;;19.02;100.00;100465.00;4905547;29;19971;-76
2023/10/05 00:03:44;;;;;;;;;;;;;;;18.85;100.00;100463.38;4904921;29;19923;-75
2023/10/05 00:06:16;;;;;;;;;;;;;;;18.64;100.00;100465.81;4909097;29;20017;-77
2023/10/05 00:08:47;;;;;;;;;;;;;;;18.48;100.00;100464.00;4906182;29;19951;-76
2023/10/05 00:11:23;;;;;;;;;;;;;;;18.46;100.00;100473.19;4905836;29;19930;-76
2023/10/05 00:13:52;;;;;;;;;;;;;;;18.45;100.00;100476.88;4909173;29;19928;-76
2023/10/05 00:16:20;;;;;;;;;;;;;;;18.46;100.00;100478.53;4909144;29;19971;-76
2023/10/05 00:18:47;;;;;;;;;;;;;;;18.48;100.00;100471.19;4906643;29;20372;-76
2023/10/05 00:21:15;;;;;;;;;;;;;;;18.46;100.00;100473.19;4908749;29;19927;-75
2023/10/05 00:23:41;;;;;;;;;;;;;;;18.41;100.00;100468.38;4905746;29;20916;-76
2023/10/05 00:26:07;;;;;;;;;;;;;;;18.35;100.00;100477.91;4908676;29;20033;-78
2023/10/05 00:28:33;;;;;;;;;;;;;;;18.39;100.00;100473.03;4905057;29;19927;-75
2023/10/05 00:31:01;;;;;;;;;;;;;;;18.32;100.00;100467.53;4906639;29;20384;-76
2023/10/05 00:33:26;;;;;;;;;;;;;;;18.25;100.00;100461.22;4890918;29;19930;-76
2023/10/05 00:35:51;;;;;;;;;;;;;;;18.23;100.00;100462.41;4907917;29;19923;-76
2023/10/05 00:38:18;;;;;;;;;;;;;;;18.20;100.00;100468.09;4905833;29;20033;-76
2023/10/05 00:40:51;;;;;;;;;;;;;;;18.22;100.00;100466.91;4908646;29;20014;-76
2023/10/05 00:43:24;;;;;;;;;;;;;;;18.25;100.00;100465.75;4908869;29;20025;-76
2023/10/05 00:45:50;;;;;;;;;;;;;;;18.23;100.00;100463.22;4906791;29;20295;-76
2023/10/05 00:51:00;;;;;;;;;;;;;;;18.14;100.00;100469.59;4913775;29;19967;-76
2023/10/05 00:53:29;;;;;;;;;;;;;;;18.08;100.00;100464.94;4906763;29;20455;-76
2023/10/05 00:56:11;;;;;;;;;;;;;;;18.04;100.00;100468.94;4889957;29;19979;-76
2023/10/05 00:58:42;;;;;;;;;;;;;;;18.13;100.00;100467.09;4903165;29;20287;-76
2023/10/05 01:01:15;;;;;;;;;;;;;;;18.18;100.00;100465.59;4903287;29;20295;-76
2023/10/05 01:06:41;;;;;;;;;;;;;;;18.31;100.00;100465.91;4904962;29;19959;-76
2023/10/05 01:09:22;;;;;;;;;;;;;;;18.30;100.00;100464.22;4905310;29;19979;-75
2023/10/05 01:11:54;;;;;;;;;;;;;;;18.29;100.00;100453.69;4906177;29;19927;-76
2023/10/05 01:14:23;;;;;;;;;;;;;;;18.29;100.00;100467.06;4906887;29;19924;-76
2023/10/05 01:16:48;;;;;;;;;;;;;;;18.32;100.00;100467.53;4889010;29;19927;-76
2023/10/05 01:19:14;;;;;;;;;;;;;;;18.33;100.00;100455.84;4891227;29;20340;-75
2023/10/05 01:21:42;;;;;;;;;;;;;;;18.32;100.00;100467.53;4888240;29;19923;-76
2023/10/05 01:24:07;;;;;;;;;;;;;;;18.34;100.00;100454.00;4890999;29;19930;-76
2023/10/05 01:26:34;;;;;;;;;;;;;;;18.39;100.00;100452.50;4888554;29;19927;-75
2023/10/05 01:28:59;;;;;;;;;;;;;;;18.38;100.00;100450.81;4889490;29;20318;-76
2023/10/05 01:31:25;;;;;;;;;;;;;;;18.29;100.00;100451.88;4889843;29;19923;-76
2023/10/05 01:33:51;;;;;;;;;;;;;;;18.22;100.00;100456.22;4906243;29;19930;-77
2023/10/05 01:36:18;;;;;;;;;;;;;;;18.14;100.00;100458.91;4906920;29;20414;-76
2023/10/05 01:38:45;;;;;;;;;;;;;;;18.09;100.00;100455.91;4904703;29;20384;-76
2023/10/05 01:41:11;;;;;;;;;;;;;;;17.98;100.00;100449.06;4882584;29;19927;-76
2023/10/05 01:43:42;;;;;;;;;;;;;;;18.04;100.00;100458.25;4904824;29;20014;-77
2023/10/05 01:46:10;;;;;;;;;;;;;;;18.03;100.00;100453.91;4890624;29;19946;-76
2023/10/05 01:48:36;;;;;;;;;;;;;;;18.03;100.00;100459.25;4904732;29;20010;-77
2023/10/05 01:51:10;;;;;;;;;;;;;;;18.09;100.00;100455.91;4889830;29;19956;-78
2023/10/05 01:53:36;;;;;;;;;;;;;;;18.02;100.00;100466.41;4887908;29;20343;-77
2023/10/05 01:56:01;;;;;;;;;;;;;;;18.04;100.00;100471.59;4906230;29;19955;-76
2023/10/05 01:58:27;;;;;;;;;;;;;;;17.97;100.00;100466.09;4905305;29;19923;-77
2023/10/05 02:00:54;;;;;;;;;;;;;;;17.92;100.00;100460.44;4888612;29;19982;-76
2023/10/05 02:03:23;;;;;;;;;;;;;;;17.91;100.00;100463.25;4906236;29;20450;-76
2023/10/05 02:05:50;;;;;;;;;;;;;;;17.80;100.00;100456.44;4905188;29;20013;-76
2023/10/05 02:08:16;;;;;;;;;;;;;;;17.87;100.00;100461.94;4907719;29;19926;-76
2023/10/05 02:10:46;;;;;;;;;;;;;;;17.91;100.00;100463.25;4904188;29;20029;-77
2023/10/05 02:13:12;;;;;;;;;;;;;;;17.86;100.00;100454.91;4892932;29;19919;-76
2023/10/05 02:15:39;;;;;;;;;;;;;;;17.90;100.00;100456.28;4890517;29;19927;-77
2023/10/05 02:18:13;;;;;;;;;;;;;;;17.89;100.00;100454.59;4887118;29;19923;-76
2023/10/05 02:20:44;;;;;;;;;;;;;;;17.76;100.00;100454.25;4907378;29;20017;-76
2023/10/05 02:23:25;;;;;;;;;;;;;;;17.74;100.00;100456.25;4890276;29;20066;-75
2023/10/05 02:26:05;;;;;;;;;;;;;;;17.66;100.00;100453.59;4904981;29;19931;-76
2023/10/05 02:28:33;;;;;;;;;;;;;;;17.62;100.00;100458.41;4904159;29;19950;-76
2023/10/05 02:31:00;;;;;;;;;;;;;;;17.50;100.00;100455.22;4905600;29;19947;-76
2023/10/05 02:33:27;;;;;;;;;;;;;;;17.53;100.00;100446.88;4888499;29;20071;-76
2023/10/05 02:35:59;;;;;;;;;;;;;;;17.59;100.00;100443.56;4888965;29;19970;-76
2023/10/05 02:38:25;;;;;;;;;;;;;;;17.66;100.00;100453.59;4906312;29;19993;-75
2023/10/05 02:40:54;;;;;;;;;;;;;;;17.73;100.00;100457.28;4888000;29;19924;-76
2023/10/05 02:43:29;;;;;;;;;;;;;;;17.78;100.00;100452.28;4885806;29;20452;-77
2023/10/05 02:46:10;;;;;;;;;;;;;;;17.85;100.00;100447.91;4913191;29;20026;-76
2023/10/05 02:48:36;;;;;;;;;;;;;;;17.91;100.00;100449.91;4904292;29;19920;-75
2023/10/05 02:51:05;;;;;;;;;;;;;;;17.94;100.00;100453.09;4913321;29;19931;-75
2023/10/05 02:53:37;;;;;;;;;;;;;;;17.96;100.00;100450.25;4888479;29;19929;-76
2023/10/05 02:56:03;;;;;;;;;;;;;;;18.00;100.00;100456.91;4878370;29;19959;-77
2023/10/05 02:58:29;;;;;;;;;;;;;;;18.01;100.00;100453.25;4904325;29;20368;-76
2023/10/05 03:00:54;;;;;;;;;;;;;;;17.94;100.00;100453.09;4904699;29;19923;-75
2023/10/05 03:03:20;;;;;;;;;;;;;;;17.96;100.00;100463.63;4905364;29;19984;-76
2023/10/05 03:05:45;;;;;;;;;;;;;;;17.98;100.00;100456.25;4910605;29;19976;-76
2023/10/05 03:08:10;;;;;;;;;;;;;;;17.91;100.00;100455.25;4909276;29;20379;-76
2023/10/05 03:10:37;;;;;;;;;;;;;;;17.87;100.00;100461.94;4909071;29;19929;-76
2023/10/05 03:13:03;;;;;;;;;;;;;;;17.88;100.00;100458.25;4905756;29;20632;-75
2023/10/05 03:15:30;;;;;;;;;;;;;;;17.85;100.00;100463.94;4890778;29;19952;-75
2023/10/05 03:17:58;;;;;;;;;;;;;;;17.88;100.00;100466.28;4888045;29;20345;-76
2023/10/05 03:20:24;;;;;;;;;;;;;;;17.88;100.00;100464.44;4905294;29;20006;-76
2023/10/05 03:22:49;;;;;;;;;;;;;;;17.84;100.00;100472.97;4904070;29;19924;-76
2023/10/05 03:25:17;;;;;;;;;;;;;;;17.86;100.00;100470.94;4888787;29;20273;-76
2023/10/05 03:27:45;;;;;;;;;;;;;;;17.87;100.00;100472.63;4886516;29;19967;-76
2023/10/05 03:30:14;;;;;;;;;;;;;;;17.82;100.00;100470.44;4905583;29;19923;-75
2023/10/05 03:32:41;;;;;;;;;;;;;;;17.79;100.00;100484.13;4893731;29;19923;-76
2023/10/05 03:35:09;;;;;;;;;;;;;;;17.77;100.00;100488.81;4906535;29;19919;-76
2023/10/05 03:37:34;;;;;;;;;;;;;;;17.74;100.00;100481.13;4886859;29;19924;-76
2023/10/05 03:40:08;;;;;;;;;;;;;;;17.73;100.00;100483.97;4892347;29;20443;-77
2023/10/05 03:42:34;;;;;;;;;;;;;;;17.69;100.00;100485.28;4890355;29;20009;-77
2023/10/05 03:45:02;;;;;;;;;;;;;;;17.63;100.00;100481.44;4888211;29;19970;-77
2023/10/05 03:47:27;;;;;;;;;;;;;;;17.60;100.00;100487.13;4907768;29;19931;-76
2023/10/05 03:49:56;;;;;;;;;;;;;;;17.55;100.00;100487.56;4890856;29;20354;-77
2023/10/05 03:52:23;;;;;;;;;;;;;;;17.43;100.00;100483.56;4891537;29;19963;-76
2023/10/05 03:54:49;;;;;;;;;;;;;;;17.42;100.00;100484.56;4913975;29;19981;-77
2023/10/05 03:57:16;;;;;;;;;;;;;;;17.44;100.00;100487.06;4892428;29;19926;-77
2023/10/05 03:59:42;;;;;;;;;;;;;;;17.43;100.00;100475.56;4888996;29;20015;-76
2023/10/05 04:02:07;;;;;;;;;;;;;;;17.44;100.00;100482.56;4909045;29;19958;-77
2023/10/05 04:04:36;;;;;;;;;;;;;;;17.47;100.00;100487.56;4889917;29;20045;-75
2023/10/05 04:07:03;;;;;;;;;;;;;;;17.47;100.00;100486.75;4908915;29;19970;-74
2023/10/05 04:09:29;;;;;;;;;;;;;;;17.51;100.00;100478.25;4890570;29;20349;-74
2023/10/05 04:11:55;;;;;;;;;;;;;;;17.50;100.00;100491.72;4907669;29;20010;-76
2023/10/05 04:14:22;;;;;;;;;;;;;;;17.46;100.00;100485.06;4908656;29;19933;-75
2023/10/05 04:16:48;;;;;;;;;;;;;;;17.46;100.00;100485.91;4906613;29;19966;-75
2023/10/05 04:19:14;;;;;;;;;;;;;;;17.47;100.00;100486.75;4908451;29;20007;-75
2023/10/05 04:21:40;;;;;;;;;;;;;;;17.45;100.00;100484.22;4906140;29;20344;-75
2023/10/05 04:24:05;;;;;;;;;;;;;;;17.48;100.00;100489.25;4908334;29;19924;-77
2023/10/05 04:26:37;;;;;;;;;;;;;;;17.46;100.00;100485.91;4906770;29;19966;-74
2023/10/05 04:29:08;;;;;;;;;;;;;;;17.49;100.00;100482.94;4907882;29;19926;-74
2023/10/05 04:31:36;;;;;;;;;;;;;;;17.50;100.00;100481.91;4906316;29;19923;-76
2023/10/05 04:34:05;;;;;;;;;;;;;;;17.49;100.00;100480.25;4907597;29;19919;-74
2023/10/05 04:36:30;;;;;;;;;;;;;;;17.46;100.00;100485.06;4906499;29;20307;-74
2023/10/05 04:38:56;;;;;;;;;;;;;;;17.44;100.00;100479.88;4890520;29;19923;-74
2023/10/05 04:41:28;;;;;;;;;;;;;;;17.45;100.00;100483.41;4908096;29;20376;-75
2023/10/05 04:43:57;;;;;;;;;;;;;;;17.43;100.00;100480.91;4902789;29;19931;-75
2023/10/05 04:46:22;;;;;;;;;;;;;;;17.45;100.00;100478.91;4903547;29;20296;-73
2023/10/05 04:48:55;;;;;;;;;;;;;;;17.41;100.00;100477.56;4904548;29;19927;-74
2023/10/05 04:51:24;;;;;;;;;;;;;;;17.41;100.00;100482.06;4904156;29;19973;-73
2023/10/05 04:53:54;;;;;;;;;;;;;;;17.32;100.00;100483.88;4908346;29;19923;-73
2023/10/05 04:56:34;;;;;;;;;;;;;;;17.32;100.00;100478.53;4889505;29;19927;-73
2023/10/05 05:01:56;;;;;;;;;;;;;;;17.11;100.00;100478.16;4906110;29;20402;-77
2023/10/05 05:04:28;;;;;;;;;;;;;;;17.12;100.00;100474.50;4906611;29;19935;-77
2023/10/05 05:06:59;;;;;;;;;;;;;;;17.05;100.00;100476.13;4904701;29;19931;-76
2023/10/05 05:09:30;;;;;;;;;;;;;;;16.95;100.00;100470.13;4906014;29;19983;-78
2023/10/05 05:11:57;;;;;;;;;;;;;;;16.95;100.00;100480.78;4906012;29;20022;-77
2023/10/05 05:14:23;;;;;;;;;;;;;;;16.96;100.00;100474.47;4906870;29;20022;-77
2023/10/05 05:16:49;;;;;;;;;;;;;;;16.95;100.00;100472.78;4906860;29;20022;-76
2023/10/05 05:19:15;;;;;;;;;;;;;;;16.91;100.00;100477.59;4908290;29;20396;-77
2023/10/05 05:21:40;;;;;;;;;;;;;;;16.94;100.00;100479.09;4904936;29;19930;-79
2023/10/05 05:24:07;;;;;;;;;;;;;;;16.94;100.00;100479.09;4905590;29;19927;-77
2023/10/05 05:26:32;;;;;;;;;;;;;;;16.82;100.00;100486.56;4903766;29;19927;-77
2023/10/05 05:28:58;;;;;;;;;;;;;;;16.84;100.00;100483.75;4904142;29;19936;-77
2023/10/05 05:31:24;;;;;;;;;;;;;;;16.86;100.00;100487.91;4906611;29;20427;-78
2023/10/05 05:33:49;;;;;;;;;;;;;;;16.87;100.00;100492.22;4907592;29;19923;-78
2023/10/05 05:36:16;;;;;;;;;;;;;;;16.88;100.00;100501.06;4904642;29;20391;-78
2023/10/05 05:38:47;;;;;;;;;;;;;;;16.85;100.00;100504.06;4890957;29;20396;-77
2023/10/05 05:41:15;;;;;;;;;;;;;;;16.85;100.00;100506.75;4904577;29;19923;-78
2023/10/05 05:43:41;;;;;;;;;;;;;;;16.85;100.00;100506.75;4908103;29;20057;-78
2023/10/05 05:46:11;;;;;;;;;;;;;;;16.85;100.00;100518.22;4904547;29;20055;-78
2023/10/05 05:48:37;;;;;;;;;;;;;;;16.83;100.00;100519.38;4908016;29;20280;-78
2023/10/05 05:51:10;;;;;;;;;;;;;;;16.89;100.00;100518.75;4904883;29;19960;-80
2023/10/05 05:53:37;;;;;;;;;;;;;;;16.92;100.00;100516.56;4908084;29;19955;-79
2023/10/05 05:56:03;;;;;;;;;;;;;;;16.93;100.00;100526.25;4907067;29;20268;-78
2023/10/05 05:58:28;;;;;;;;;;;;;;;16.95;100.00;100523.44;4905819;29;19926;-78
2023/10/05 06:00:55;;;;;;;;;;;;;;;16.98;100.00;100512.44;4905180;29;19972;-79
2023/10/05 06:03:20;;;;;;;;;;;;;;;17.02;100.00;100519.13;4906332;29;19930;-78
2023/10/05 06:05:48;;;;;;;;;;;;;;;17.08;100.00;100521.97;4904620;29;19923;-78
2023/10/05 06:08:14;;;;;;;;;;;;;;;17.09;100.00;100520.13;4906548;29;19955;-78
2023/10/05 06:10:43;;;;;;;;;;;;;;;17.04;100.00;100522.47;4903972;29;19973;-78
2023/10/05 06:13:11;;;;;;;;;;;;;;;17.05;100.00;100527.63;4907684;29;19923;-79
2023/10/05 06:15:37;;;;;;;;;;;;;;;17.07;100.00;100524.81;4918328;23;19927;-82
2023/10/05 06:18:03;;;;;;;;;;;;;;;17.07;100.00;100530.16;4918850;29;19978;-83
2023/10/05 06:20:28;;;;;;;;;;;;;;;17.09;100.00;100538.81;4919798;29;19930;-83
2023/10/05 06:22:54;;;;;;;;;;;;;;;17.00;100.00;100529.13;4919255;29;19931;-83
2023/10/05 06:25:20;;;;;;;;;;;;;;;16.98;100.00;100529.28;4918154;29;20006;-82
2023/10/05 06:27:47;;;;;;;;;;;;;;;17.01;100.00;100538.78;4919875;29;19947;-83
2023/10/05 06:30:13;;;;;;;;;;;;;;;17.05;100.00;100534.81;4919037;29;19934;-83
2023/10/05 06:32:39;;;;;;;;;;;;;;;17.02;100.00;100537.81;4919905;29;20328;-83
2023/10/05 06:35:08;;;;;;;;;;;;;;;17.07;100.00;100538.16;4919057;29;19920;-82
2023/10/05 06:37:34;;;;;;;;;;;;;;;17.11;100.00;100540.34;4918717;29;20324;-82
2023/10/05 06:39:59;;;;;;;;;;;;;;;17.12;100.00;100549.16;4918296;29;20327;-82
2023/10/05 06:42:25;;;;;;;;;;;;;;;17.15;100.00;100548.84;4919719;29;19962;-83
2023/10/05 06:44:51;;;;;;;;;;;;;;;17.25;100.00;100551.38;4918448;29;19978;-79
2023/10/05 06:47:36;;;;;;;;;;;;;;;17.30;100.00;100549.06;4912550;29;20018;-79
2023/10/05 06:50:10;;;;;;;;;;;;;;;17.30;100.00;100549.06;4909287;29;19978;-79
2023/10/05 06:52:41;;;;;;;;;;;;;;;17.38;100.00;100547.25;4914788;29;19978;-81
2023/10/05 06:55:08;;;;;;;;;;;;;;;17.38;100.00;100552.56;4914646;29;20036;-81
2023/10/05 06:57:35;;;;;;;;;;;;;;;17.40;100.00;100555.94;4912075;29;19935;-80
2023/10/05 07:00:03;;;;;;;;;;;;;;;17.46;100.00;100549.09;4911544;29;19923;-81
2023/10/05 07:02:28;;;;;;;;;;;;;;;17.46;100.00;100560.63;4913705;29;19931;-81
2023/10/05 07:04:54;;;;;;;;;;;;;;;17.47;100.00;100561.47;4912380;29;19986;-80
2023/10/05 07:07:19;;;;;;;;;;;;;;;17.49;100.00;100559.47;4218433;29;10000815;-81
2023/10/05 07:09:44;;;;;;;;;;;;;;;17.50;100.00;100559.28;4912448;29;20291;-81
2023/10/05 07:12:10;;;;;;;;;;;;;;;17.50;100.00;100567.28;4914894;29;19930;-81
2023/10/05 07:14:36;;;;;;;;;;;;;;;17.59;100.00;100571.66;4901243;29;19935;-81
2023/10/05 07:17:01;;;;;;;;;;;;;;;17.68;100.00;100563.69;4898027;29;20287;-81
2023/10/05 07:19:27;;;;;;;;;;;;;;;17.69;100.00;100562.69;4918413;29;19927;-81
2023/10/05 07:21:52;;;;;;;;;;;;;;;17.72;100.00;100565.88;4885207;29;19926;-81
2023/10/05 07:24:17;;;;;;;;;;;;;;;17.80;100.00;100567.72;4900845;29;19922;-81
2023/10/05 07:26:43;;;;;;;;;;;;;;;17.87;100.00;100574.06;4918099;29;19924;-81
2023/10/05 07:29:08;;;;;;;;;;;;;;;17.88;100.00;100575.75;4916431;29;19951;-81
2023/10/05 07:31:35;;;;;;;;;;;;;;;17.83;100.00;100573.59;4900511;29;19923;-81
2023/10/05 07:34:02;;;;;;;;;;;;;;;17.83;100.00;100572.75;4916752;29;20010;-81
2023/10/05 07:36:31;;;;;;;;;;;;;;;17.95;100.00;100572.25;4919957;29;19923;-80
2023/10/05 07:38:57;;;;;;;;;;;;;;;17.94;100.00;100569.75;4932651;29;19923;-80
2023/10/05 07:41:22;;;;;;;;;;;;;;;18.00;100.00;100569.94;4934095;29;19947;-80
2023/10/05 07:43:48;;;;;;;;;;;;;;;18.11;100.00;100576.78;4934104;29;19923;-81
2023/10/05 07:46:13;;;;;;;;;;;;;;;18.17;100.00;100576.09;4926141;29;20294;-81
2023/10/05 07:48:38;;;;;;;;;;;;;;;18.23;100.00;100575.44;4931739;29;19986;-81
2023/10/05 07:51:06;;;;;;;;;;;;;;;18.27;100.00;100570.56;4917631;29;19923;-79
2023/10/05 07:53:31;;;;;;;;;;;;;;;18.31;100.00;100578.13;4917890;29;20030;-78
2023/10/05 07:55:57;;;;;;;;;;;;;;;18.36;100.00;100567.75;4885597;29;20018;-80
2023/10/05 07:58:22;;;;;;;;;;;;;;;18.40;100.00;100566.41;4917039;29;19927;-81
2023/10/05 08:00:48;;;;;;;;;;;;;;;18.48;100.00;100565.56;4917112;29;19923;-80
2023/10/05 08:03:14;;;;;;;;;;;;;;;18.56;100.00;100573.59;4916519;29;20018;-80
2023/10/05 08:05:40;;;;;;;;;;;;;;;18.61;100.00;100567.75;4917501;29;19927;-80
2023/10/05 08:08:05;;;;;;;;;;;;;;;18.69;100.00;100568.56;4917010;29;19923;-80
2023/10/05 08:10:31;;;;;;;;;;;;;;;18.76;100.00;100560.69;4917367;29;19923;-80
2023/10/05 08:13:00;;;;;;;;;;;;;;;18.84;100.00;100558.00;4917095;29;19923;-80
2023/10/05 08:15:26;;;;;;;;;;;;;;;18.91;100.00;100556.28;4917149;29;19959;-80
2023/10/05 08:17:51;;;;;;;;;;;;;;;19.01;100.00;100559.63;4917666;29;19973;-80
2023/10/05 08:20:18;;;;;;;;;;;;;;;19.07;100.00;100558.09;4917200;29;19923;-80
2023/10/05 08:22:43;;;;;;;;;;;;;;;19.07;100.00;100558.94;4918060;29;19923;-80
2023/10/05 08:25:12;;;;;;;;;;;;;;;19.10;100.00;100561.25;4917287;29;19946;-80
2023/10/05 08:27:38;;;;;;;;;;;;;;;19.09;100.00;100556.91;4900222;29;19923;-80
2023/10/05 08:30:08;;;;;;;;;;;;;;;19.18;100.00;100568.41;4916443;29;19938;-79
2023/10/05 08:32:34;;;;;;;;;;;;;;;19.16;100.00;100563.22;4916642;29;19931;-80
2023/10/05 08:35:06;;;;;;;;;;;;;;;19.20;100.00;100569.88;4917002;29;19982;-79
2023/10/05 08:37:33;;;;;;;;;;;;;;;19.27;100.00;100575.38;4917460;29;20457;-80
2023/10/05 08:39:59;;;;;;;;;;;;;;;19.39;100.00;100578.50;4917277;29;19978;-80
2023/10/05 08:42:26;;;;;;;;;;;;;;;19.43;100.00;100590.56;4900385;29;19927;-80
2023/10/05 08:44:53;;;;;;;;;;;;;;;19.49;100.00;100584.53;4917010;29;19931;-81
2023/10/05 08:47:20;;;;;;;;;;;;;;;19.49;100.00;100584.53;4916470;29;19923;-82
2023/10/05 08:49:46;;;;;;;;;;;;;;;19.60;100.00;100594.84;4917349;29;20037;-81
2023/10/05 08:52:20;;;;;;;;;;;;;;;19.57;100.00;100587.97;4916556;29;20002;-80
2023/10/05 08:54:46;;;;;;;;;;;;;;;19.55;100.00;100583.84;4913783;29;19923;-81
2023/10/05 08:57:15;;;;;;;;;;;;;;;19.60;100.00;100581.47;4916243;29;19923;-80
2023/10/05 08:59:45;;;;;;;;;;;;;;;19.69;100.00;100579.56;4916554;29;19923;-80
2023/10/05 09:02:11;;;;;;;;;;;;;;;19.75;100.00;100568.97;4912208;29;20379;-81
2023/10/05 09:04:47;;;;;;;;;;;;;;;19.83;100.00;100571.59;4916341;29;20026;-79
2023/10/05 09:07:38;;;;;;;;;;;;;;;19.90;100.00;100567.22;4895931;29;20454;-79
2023/10/05 09:10:05;;;;;;;;;;;;;;;19.95;100.00;100575.53;4898684;29;19938;-78
2023/10/05 09:12:46;;;;;;;;;;;;;;;19.97;100.00;100567.28;4916385;29;19924;-80
2023/10/05 09:17:58;;;;;;;;;;;;;;;20.08;100.00;100563.38;4914097;29;19927;-80
2023/10/05 09:20:25;;;;;;;;;;;;;;;20.20;100.00;100561.94;4916014;29;20451;-80
2023/10/05 09:22:51;;;;;;;;;;;;;;;20.25;100.00;100564.91;4916491;29;19930;-80
2023/10/05 09:25:26;;;;;;;;;;;;;;;20.31;100.00;100559.66;4899151;29;19923;-80
2023/10/05 09:27:51;;;;;;;;;;;;;;;20.42;100.00;100563.78;4916267;29;20000;-80
2023/10/05 09:30:21;;;;;;;;;;;;;;;20.53;100.00;100566.03;4898720;29;19959;-79
2023/10/05 09:32:48;;;;;;;;;;;;;;;20.56;100.00;100557.59;4915646;29;20415;-80
2023/10/05 09:35:31;;;;;;;;;;;;;;;20.54;100.00;100548.94;4915085;29;20334;-80
2023/10/05 09:38:00;;;;;;;;;;;;;;;20.63;100.00;100552.34;4915768;29;20447;-80
2023/10/05 09:40:27;;;;;;;;;;;;;;;20.69;100.00;100552.44;4915952;29;20458;-81
2023/10/05 09:42:53;;;;;;;;;;;;;;;20.73;100.00;100551.06;4915797;29;20025;-80
2023/10/05 09:45:20;;;;;;;;;;;;;;;20.76;100.00;100549.84;4898387;29;20387;-81
2023/10/05 09:47:47;;;;;;;;;;;;;;;20.77;100.00;100557.72;4915559;29;20392;-81
2023/10/05 09:50:15;;;;;;;;;;;;;;;20.80;100.00;100553.81;4915415;29;20368;-80
2023/10/05 09:52:43;;;;;;;;;;;;;;;20.86;100.00;100555.78;4912055;29;20015;-81
2023/10/05 09:55:12;;;;;;;;;;;;;;;20.82;100.00;100552.63;4908512;29;20284;-79
2023/10/05 09:57:46;;;;;;;;;;;;;;;20.81;100.00;100550.13;4912520;29;19923;-80
2023/10/05 10:01:10;;;;;;;;;;;;;;;20.74;100.00;100547.34;4895630;29;19927;-78
2023/10/05 10:03:01;;;;;;;;;;;;;;;20.86;100.00;100547.72;4898669;29;19942;-78
2023/10/05 10:05:30;;;;;;;;;;;;;;;20.96;100.00;100544.78;4912899;29;19955;-78
2023/10/05 10:07:57;;;;;;;;;;;;;;;21.06;100.00;100537.25;4912957;29;20257;-78
2023/10/05 10:10:25;;;;;;;;;;;;;;;21.10;100.00;100541.22;4915964;29;20379;-78
2023/10/05 10:12:52;;;;;;;;;;;;;;;21.16;100.00;100540.50;4915293;29;19930;-77
2023/10/05 10:15:29;;;;;;;;;;;;;;;21.22;100.00;100537.09;4915318;29;19927;-75
2023/10/05 10:18:09;;;;;;;;;;;;;;;21.28;100.00;100536.34;4914984;29;20327;-80
2023/10/05 10:20:37;;;;;;;;;;;;;;;21.37;100.00;100535.22;4915235;29;19941;-77
2023/10/05 10:23:14;;;;;;;;;;;;;;;21.42;100.00;100532.78;4914748;29;19930;-78
2023/10/05 10:25:40;;;;;;;;;;;;;;;21.46;100.00;100525.19;4914446;29;19923;-77
2023/10/05 10:28:16;;;;;;;;;;;;;;;21.52;100.00;100527.09;4915021;29;20372;-79
2023/10/05 10:30:47;;;;;;;;;;;;;;;21.57;100.00;100522.84;4911373;29;19930;-77
2023/10/05 10:33:30;;;;;;;;;;;;;;;21.62;100.00;100533.81;4912336;29;19923;-79
2023/10/05 10:35:57;;;;;;;;;;;;;;;21.69;100.00;100527.69;4913313;29;19973;-78
2023/10/05 10:38:23;;;;;;;;;;;;;;;21.68;100.00;100526.06;4915739;29;19934;-78
2023/10/05 10:41:07;;;;;;;;;;;;;;;21.76;100.00;100512.47;4915207;29;19923;-78
2023/10/05 10:43:33;;;;;;;;;;;;;;;21.78;100.00;100513.13;4911892;29;19931;-77
2023/10/05 10:46:00;;;;;;;;;;;;;;;21.83;100.00;100505.31;4914941;29;19923;-77
2023/10/05 10:48:29;;;;;;;;;;;;;;;21.86;100.00;100507.59;4898056;29;20294;-77
2023/10/05 10:51:00;;;;;;;;;;;;;;;21.92;100.00;100506.84;4914980;29;19940;-76
2023/10/05 10:53:31;;;;;;;;;;;;;;;21.98;100.00;100506.09;4915416;29;19951;-77
2023/10/05 10:56:04;;;;;;;;;;;;;;;22.01;100.00;100500.34;4914062;29;19930;-78
2023/10/05 10:58:34;;;;;;;;;;;;;;;22.09;100.00;100497.50;4914392;29;20403;-78
2023/10/05 11:01:04;;;;;;;;;;;;;;;22.16;100.00;100490.31;4912718;29;20005;-81
2023/10/05 11:03:30;;;;;;;;;;;;;;;22.17;100.00;100483.94;4895259;29;20273;-79
2023/10/05 11:05:57;;;;;;;;;;;;;;;22.26;100.00;100488.16;4913479;29;20032;-84
2023/10/05 11:08:23;;;;;;;;;;;;;;;22.36;100.00;100482.41;4914354;29;19970;-76
2023/10/05 11:11:09;;;;;;;;;;;;;;;22.46;100.00;100478.34;4897821;29;19931;-79
2023/10/05 11:13:45;;;;;;;;;;;;;;;22.51;100.00;100479.59;4915337;29;20284;-80
2023/10/05 11:16:11;;;;;;;;;;;;;;;22.61;100.00;100474.72;4912015;29;20322;-79
2023/10/05 11:18:50;;;;;;;;;;;;;;;22.73;100.00;100468.63;4914762;29;20041;-80
2023/10/05 11:21:18;;;;;;;;;;;;;;;22.87;100.00;100474.88;4898728;29;20260;-79
2023/10/05 11:23:45;;;;;;;;;;;;;;;22.99;100.00;100473.25;4914770;29;19927;-80
2023/10/05 11:26:17;;;;;;;;;;;;;;;23.10;100.00;100471.84;4913050;29;20391;-79
2023/10/05 11:28:46;;;;;;;;;;;;;;;23.17;100.00;100465.47;4914905;29;20343;-79
2023/10/05 11:31:12;;;;;;;;;;;;;;;23.26;100.00;100458.88;4913847;29;20339;-78
2023/10/05 11:33:41;;;;;;;;;;;;;;;23.39;100.00;100446.44;4913681;29;19923;-79
2023/10/05 11:36:17;;;;;;;;;;;;;;;23.55;100.00;100440.72;4912525;29;20423;-79
2023/10/05 11:38:47;;;;;;;;;;;;;;;23.71;100.00;100437.63;4911049;29;20253;-79
2023/10/05 11:41:16;;;;;;;;;;;;;;;23.87;100.00;100439.91;4913976;29;20304;-78
2023/10/05 11:43:43;;;;;;;;;;;;;;;24.03;100.00;100444.84;4897450;29;19930;-79
2023/10/05 11:46:24;;;;;;;;;;;;;;;23.95;100.00;100441.56;4896907;29;19923;-79
2023/10/05 11:48:56;;;;;;;;;;;;;;;24.09;100.00;100438.63;4897534;29;19919;-79
2023/10/05 11:51:41;;;;;;;;;;;;;;;24.15;100.00;100434.28;4914093;29;20282;-79
2023/10/05 11:54:07;;;;;;;;;;;;;;;24.26;100.00;100430.16;4914019;29;19919;-78
2023/10/05 11:56:33;;;;;;;;;;;;;;;24.32;100.00;100423.94;4913570;29;19958;-79
2023/10/05 11:59:00;;;;;;;;;;;;;;;24.35;100.00;100418.09;4914382;29;19954;-78
2023/10/05 12:01:26;;;;;;;;;;;;;;;24.35;100.00;100420.78;4917457;29;19923;-79
2023/10/05 12:03:51;;;;;;;;;;;;;;;24.34;100.00;100413.72;4917417;29;19923;-79
2023/10/05 12:06:25;;;;;;;;;;;;;;;24.33;100.00;100407.50;4917078;29;20114;-78
2023/10/05 12:09:00;;;;;;;;;;;;;;;24.35;100.00;100404.59;4917271;29;20005;-79
2023/10/05 12:11:26;;;;;;;;;;;;;;;24.39;100.00;100403.97;4917010;29;19923;-78
2023/10/05 12:13:56;;;;;;;;;;;;;;;24.38;100.00;100401.50;4917593;29;19926;-78
2023/10/05 12:16:23;;;;;;;;;;;;;;;24.49;100.00;100400.84;4899907;29;20291;-79
2023/10/05 12:18:49;;;;;;;;;;;;;;;24.52;100.00;100397.69;4917159;29;19951;-79
2023/10/05 12:21:16;;;;;;;;;;;;;;;24.60;100.00;100402.03;4916839;29;19933;-79
2023/10/05 12:23:41;;;;;;;;;;;;;;;24.63;100.00;100386.25;4900170;29;20014;-79
2023/10/05 12:26:10;;;;;;;;;;;;;;;24.71;100.00;100391.41;4916501;29;20013;-79
2023/10/05 12:28:36;;;;;;;;;;;;;;;24.85;100.00;100387.63;4917284;29;20371;-79
2023/10/05 12:31:02;;;;;;;;;;;;;;;24.96;100.00;100380.72;4916931;29;20284;-78
2023/10/05 12:33:28;;;;;;;;;;;;;;;25.11;100.00;100383.13;4917705;29;19930;-78
2023/10/05 12:35:53;;;;;;;;;;;;;;;25.23;100.00;100375.97;4917442;29;19923;-80
2023/10/05 12:38:21;;;;;;;;;;;;;;;25.16;100.00;100372.50;4917258;29;19923;-80
2023/10/05 12:40:47;;;;;;;;;;;;;;;24.98;100.00;100365.13;4917307;29;19929;-80
2023/10/05 12:43:16;;;;;;;;;;;;;;;24.91;100.00;100366.22;4900112;29;19974;-80